createdAt,value
2022-08-19T00:01:55.151Z,17.58
2022-08-19T00:04:41.393Z,13.73
2022-08-19T00:07:26.506Z,18.00
2022-08-19T00:10:15.532Z,16.25
2022-08-19T00:13:01.103Z,14.48
2022-08-19T00:15:45.917Z,17.90
2022-08-19T00:18:31.846Z,18.10
2022-08-19T00:21:17.162Z,19.27
2022-08-19T00:24:02.717Z,15.20
2022-08-19T00:26:48.064Z,16.88
2022-08-19T00:29:33.111Z,14.52
2022-08-19T00:32:18.591Z,13.68
2022-08-19T00:35:05.558Z,17.90
2022-08-19T00:37:51.209Z,16.10
2022-08-19T00:40:36.201Z,15.90
2022-08-19T00:43:25.220Z,14.93
2022-08-19T00:46:10.541Z,16.20
2022-08-19T00:48:57.569Z,17.40
2022-08-19T00:51:45.548Z,15.35
2022-08-19T00:54:31.543Z,15.50
2022-08-19T00:57:21.378Z,14.75
2022-08-19T01:00:11.024Z,17.05
2022-08-19T01:02:56.887Z,18.60
2022-08-19T01:05:44.470Z,18.02
2022-08-19T01:08:29.598Z,16.58
2022-08-19T01:11:15.239Z,14.98
2022-08-19T01:14:00.650Z,16.40
2022-08-19T01:16:47.548Z,20.20
2022-08-19T01:19:44.148Z,20.30
2022-08-19T01:22:38.534Z,18.17
2022-08-19T01:25:30.053Z,19.70
2022-08-19T01:28:21.828Z,20.88
2022-08-19T01:31:27.019Z,20.30
2022-08-19T01:34:12.708Z,17.92
2022-08-19T01:36:57.578Z,18.60
2022-08-19T01:39:43.727Z,18.73
2022-08-19T01:42:29.931Z,19.25
2022-08-19T01:45:15.809Z,17.65
2022-08-19T01:48:02.533Z,18.80
2022-08-19T01:50:47.753Z,16.27
2022-08-19T01:53:33.955Z,17.20
2022-08-19T01:56:20.000Z,17.02
2022-08-19T01:59:11.324Z,17.00
2022-08-19T02:01:56.464Z,16.63
2022-08-19T02:04:41.716Z,18.10
2022-08-19T02:07:27.054Z,18.05
2022-08-19T02:10:16.562Z,18.52
2022-08-19T02:13:01.800Z,20.05
2022-08-19T02:15:46.805Z,21.40
2022-08-19T02:18:31.869Z,17.23
2022-08-19T02:21:18.839Z,19.77
2022-08-19T02:24:04.299Z,16.98
2022-08-19T02:26:49.864Z,18.45
2022-08-19T02:29:34.713Z,18.45
2022-08-19T02:32:20.761Z,17.52
2022-08-19T02:35:12.257Z,16.27
2022-08-19T02:37:58.282Z,18.13
2022-08-19T02:40:52.636Z,17.52
2022-08-19T02:43:38.286Z,17.17
2022-08-19T02:46:26.835Z,17.17
2022-08-19T02:49:11.889Z,16.25
2022-08-19T02:51:57.161Z,16.65
2022-08-19T02:54:42.074Z,17.77
2022-08-19T02:57:27.680Z,18.75
2022-08-19T03:00:13.383Z,20.25
2022-08-19T03:02:58.661Z,19.77
2022-08-19T03:05:47.902Z,16.77
2022-08-19T03:08:43.696Z,18.15
2022-08-19T03:11:32.280Z,15.82
2022-08-19T03:14:17.471Z,20.92
2022-08-19T03:17:04.097Z,22.38
2022-08-19T03:19:49.134Z,16.80
2022-08-19T03:22:34.011Z,16.83
2022-08-19T03:25:18.799Z,18.08
2022-08-19T03:28:03.969Z,15.98
2022-08-19T03:31:01.407Z,17.55
2022-08-19T03:33:46.779Z,19.33
2022-08-19T03:36:36.429Z,17.80
2022-08-19T03:39:22.960Z,18.23
2022-08-19T03:42:38.690Z,18.50
2022-08-19T03:45:14.456Z,19.00
2022-08-19T03:47:59.831Z,19.73
2022-08-19T03:50:45.554Z,21.33
2022-08-19T03:53:32.562Z,17.48
2022-08-19T03:56:18.914Z,18.55
2022-08-19T03:59:06.052Z,19.30
2022-08-19T04:01:50.925Z,20.55
2022-08-19T04:04:40.659Z,18.17
2022-08-19T04:07:25.921Z,21.25
2022-08-19T04:10:11.002Z,19.20
2022-08-19T04:12:56.852Z,19.10
2022-08-19T04:15:44.361Z,18.83
2022-08-19T04:18:32.522Z,18.33
2022-08-19T04:21:23.748Z,18.65
2022-08-19T04:24:09.982Z,20.77
2022-08-19T04:26:55.412Z,18.65
2022-08-19T04:29:40.216Z,16.85
2022-08-19T04:32:25.035Z,19.63
2022-08-19T04:35:16.747Z,19.17
2022-08-19T04:38:04.443Z,20.08
2022-08-19T04:40:51.379Z,30.90
2022-08-19T04:43:38.491Z,25.92
2022-08-19T04:46:39.632Z,22.98
2022-08-19T04:49:25.800Z,21.77
2022-08-19T04:52:11.204Z,18.08
2022-08-19T04:54:56.576Z,18.65
2022-08-19T04:57:41.532Z,22.23
2022-08-19T05:00:26.951Z,38.63
2022-08-19T05:03:12.381Z,24.73
2022-08-19T05:05:57.249Z,22.58
2022-08-19T05:08:43.424Z,24.17
2022-08-19T05:11:31.645Z,27.98
2022-08-19T05:14:16.581Z,24.88
2022-08-19T05:17:25.646Z,24.15
2022-08-19T05:20:08.113Z,22.45
2022-08-19T05:22:53.588Z,23.33
2022-08-19T05:25:40.711Z,24.90
2022-08-19T05:28:26.608Z,22.65
2022-08-19T05:31:11.654Z,24.60
2022-08-19T05:33:56.576Z,25.88
2022-08-19T05:36:44.452Z,28.33
2022-08-19T05:39:32.715Z,25.95
2022-08-19T05:42:17.776Z,27.05
2022-08-19T05:45:03.561Z,31.92
2022-08-19T05:47:48.945Z,30.88
2022-08-19T05:50:34.116Z,30.00
2022-08-19T05:53:20.802Z,36.55
2022-08-19T05:56:11.778Z,37.33
2022-08-19T05:58:58.382Z,34.03
2022-08-19T06:01:49.007Z,29.83
2022-08-19T06:04:34.772Z,29.55
2022-08-19T06:07:20.289Z,30.25
2022-08-19T06:10:08.582Z,29.98
2022-08-19T06:12:54.939Z,30.67
2022-08-19T06:15:40.204Z,32.20
2022-08-19T06:18:25.485Z,30.75
2022-08-19T06:21:10.572Z,31.60
2022-08-19T06:23:56.657Z,30.50
2022-08-19T06:26:43.858Z,31.40
2022-08-19T06:29:29.431Z,32.22
2022-08-19T06:32:17.016Z,33.60
2022-08-19T06:35:02.257Z,32.00
2022-08-19T06:37:47.339Z,33.55
2022-08-19T06:40:32.617Z,30.48
2022-08-19T06:43:18.572Z,32.00
2022-08-19T06:46:04.562Z,34.58
2022-08-19T06:48:51.781Z,31.52
2022-08-19T06:51:37.027Z,32.38
2022-08-19T06:54:30.621Z,29.75
2022-08-19T06:57:16.016Z,30.92
2022-08-19T07:00:01.725Z,33.75
2022-08-19T07:02:52.172Z,29.08
2022-08-19T07:05:43.140Z,28.90
2022-08-19T07:08:31.531Z,29.73
2022-08-19T07:11:19.027Z,27.98
2022-08-19T07:14:04.712Z,26.02
2022-08-19T07:16:51.644Z,24.85
2022-08-19T07:19:38.670Z,27.45
2022-08-19T07:22:24.481Z,24.63
2022-08-19T07:25:10.552Z,23.83
2022-08-19T07:27:55.848Z,24.10
2022-08-19T07:30:41.279Z,24.02
2022-08-19T07:33:29.265Z,21.00
2022-08-19T07:36:17.552Z,19.98
2022-08-19T07:39:11.867Z,23.20
2022-08-19T07:41:59.558Z,23.23
2022-08-19T07:44:49.941Z,21.83
2022-08-19T07:47:48.993Z,20.50
2022-08-19T07:50:36.007Z,17.95
2022-08-19T07:53:22.473Z,18.73
2022-08-19T07:56:07.635Z,17.50
2022-08-19T07:58:53.636Z,17.70
2022-08-19T08:01:41.772Z,15.73
2022-08-19T08:04:28.678Z,18.48
2022-08-19T08:07:13.669Z,16.27
2022-08-19T08:09:59.080Z,21.67
2022-08-19T08:13:08.802Z,16.38
2022-08-19T08:15:54.724Z,17.20
2022-08-19T08:18:41.854Z,14.57
2022-08-19T08:21:27.387Z,16.73
2022-08-19T08:24:12.757Z,14.82
2022-08-19T08:27:00.122Z,17.45
2022-08-19T08:29:45.381Z,14.23
2022-08-19T08:32:30.805Z,15.88
2022-08-19T08:35:18.554Z,14.38
2022-08-19T08:38:04.320Z,15.32
2022-08-19T08:40:54.336Z,13.05
2022-08-19T08:43:41.854Z,13.18
2022-08-19T08:46:36.542Z,13.43
2022-08-19T08:49:32.073Z,13.13
2022-08-19T08:52:33.356Z,14.95
2022-08-19T08:55:23.607Z,12.65
2022-08-19T08:58:32.550Z,13.40
2022-08-19T09:01:17.865Z,11.95
2022-08-19T09:04:07.566Z,12.90
2022-08-19T09:07:35.420Z,12.05
2022-08-19T09:10:44.207Z,14.35
2022-08-19T09:13:39.762Z,11.70
2022-08-19T09:16:28.596Z,10.05
2022-08-19T09:19:14.990Z,15.18
2022-08-19T09:22:07.785Z,12.02
2022-08-19T09:24:56.772Z,11.40
2022-08-19T09:27:43.694Z,12.20
2022-08-19T09:30:35.738Z,11.40
2022-08-19T09:33:20.944Z,12.88
2022-08-19T09:36:12.751Z,10.93
2022-08-19T09:39:16.277Z,10.27
2022-08-19T09:42:01.706Z,10.65
2022-08-19T09:44:47.077Z,13.70
2022-08-19T09:47:32.444Z,10.82
2022-08-19T09:50:17.836Z,11.40
2022-08-19T09:53:03.184Z,11.48
2022-08-19T09:55:48.012Z,15.95
2022-08-19T09:58:34.650Z,12.30
2022-08-19T10:01:26.387Z,11.98
2022-08-19T10:04:20.220Z,13.23
2022-08-19T10:07:07.171Z,12.50
2022-08-19T10:09:52.227Z,10.20
2022-08-19T10:12:37.653Z,12.68
2022-08-19T10:15:29.237Z,13.80
2022-08-19T10:18:15.976Z,11.73
2022-08-19T10:21:14.727Z,12.77
2022-08-19T10:24:03.666Z,12.85
2022-08-19T10:26:48.544Z,7.35
2022-08-19T10:29:46.371Z,6.50
2022-08-19T10:32:34.495Z,8.98
2022-08-19T10:35:21.690Z,9.75
2022-08-19T10:38:07.203Z,8.07
2022-08-19T10:40:55.834Z,10.27
2022-08-19T10:43:42.954Z,14.30
2022-08-19T10:46:29.045Z,10.18
2022-08-19T10:49:14.637Z,11.55
2022-08-19T10:51:59.826Z,11.70
2022-08-19T10:54:44.577Z,8.23
2022-08-19T10:57:52.407Z,10.90
2022-08-19T11:00:38.063Z,7.20
2022-08-19T11:03:24.570Z,7.90
2022-08-19T11:06:09.932Z,10.57
2022-08-19T11:08:55.491Z,10.38
2022-08-19T11:11:40.860Z,9.98
2022-08-19T11:14:25.913Z,9.55
2022-08-19T11:17:12.243Z,12.77
2022-08-19T11:19:57.707Z,8.40
2022-08-19T11:22:43.287Z,9.90
2022-08-19T11:25:28.317Z,7.88
2022-08-19T11:28:13.870Z,11.80
2022-08-19T11:30:59.503Z,12.38
2022-08-19T11:33:47.639Z,9.65
2022-08-19T11:36:33.345Z,9.23
2022-08-19T11:39:20.197Z,8.23
2022-08-19T11:42:07.089Z,9.30
2022-08-19T11:44:52.844Z,10.10
2022-08-19T11:47:37.831Z,10.02
2022-08-19T11:50:24.396Z,10.50
2022-08-19T11:53:10.047Z,8.70
2022-08-19T11:55:56.374Z,8.13
2022-08-19T11:58:41.480Z,9.90
2022-08-19T12:01:27.069Z,11.02
2022-08-19T12:04:12.461Z,7.80
2022-08-19T12:06:57.841Z,8.80
2022-08-19T12:09:43.157Z,6.28
2022-08-19T12:12:28.262Z,7.30
2022-08-19T12:15:13.767Z,7.63
2022-08-19T12:17:59.111Z,7.32
2022-08-19T12:20:44.545Z,9.27
2022-08-19T12:23:29.643Z,7.30
2022-08-19T12:26:16.165Z,8.80
2022-08-19T12:29:01.448Z,6.22
2022-08-19T12:31:46.351Z,7.18
2022-08-19T12:34:33.050Z,7.97
2022-08-19T12:37:18.605Z,9.50
2022-08-19T12:40:04.770Z,6.78
2022-08-19T12:42:49.759Z,6.35
2022-08-19T12:45:35.172Z,9.00
2022-08-19T12:48:34.414Z,6.70
2022-08-19T12:51:19.972Z,5.47
2022-08-19T12:54:04.919Z,15.13
2022-08-19T12:56:50.390Z,4.57
2022-08-19T12:59:36.737Z,6.50
2022-08-19T13:02:22.220Z,7.93
2022-08-19T13:05:09.445Z,10.57
2022-08-19T13:07:57.020Z,6.70
2022-08-19T13:10:42.418Z,6.40
2022-08-19T13:13:27.761Z,6.82
2022-08-19T13:16:13.748Z,6.55
2022-08-19T13:18:58.995Z,7.53
2022-08-19T13:21:44.206Z,5.78
2022-08-19T13:24:32.301Z,9.30
2022-08-19T13:27:19.326Z,8.57
2022-08-19T13:30:06.197Z,6.03
2022-08-19T13:32:51.447Z,7.35
2022-08-19T13:35:36.484Z,8.80
2022-08-19T13:38:22.810Z,6.60
2022-08-19T13:41:11.151Z,7.85
2022-08-19T13:43:58.338Z,8.20
2022-08-19T13:46:43.226Z,5.43
2022-08-19T13:49:29.505Z,4.72
2022-08-19T13:52:14.940Z,7.05
2022-08-19T13:55:00.310Z,11.88
2022-08-19T13:57:45.845Z,10.13
2022-08-19T14:00:35.511Z,7.53
2022-08-19T14:03:20.724Z,6.47
2022-08-19T14:06:06.330Z,10.05
2022-08-19T14:08:51.682Z,6.40
2022-08-19T14:11:37.054Z,6.82
2022-08-19T14:14:22.637Z,7.00
2022-08-19T14:17:08.655Z,7.22
2022-08-19T14:20:03.399Z,5.10
2022-08-19T14:22:56.401Z,7.15
2022-08-19T14:25:42.009Z,6.55
2022-08-19T14:28:28.236Z,7.20
2022-08-19T14:31:15.514Z,8.50
2022-08-19T14:34:00.809Z,8.70
2022-08-19T14:36:45.617Z,7.85
2022-08-19T14:39:30.938Z,8.07
2022-08-19T14:42:16.410Z,7.57
2022-08-19T14:45:02.554Z,6.53
2022-08-19T14:47:47.611Z,7.93
2022-08-19T14:50:33.900Z,6.40
2022-08-19T14:53:19.479Z,9.55
2022-08-19T14:56:12.665Z,6.78
2022-08-19T14:58:58.362Z,8.05
2022-08-19T15:01:43.997Z,8.35
2022-08-19T15:04:33.324Z,8.88
2022-08-19T15:07:19.051Z,7.93
2022-08-19T15:10:07.293Z,9.98
2022-08-19T15:12:52.379Z,9.90
2022-08-19T15:15:37.645Z,5.03
2022-08-19T15:18:23.492Z,8.80
2022-08-19T15:21:08.696Z,25.02
2022-08-19T15:23:56.618Z,8.30
2022-08-19T15:26:42.072Z,8.77
2022-08-19T15:29:27.657Z,6.88
2022-08-19T15:32:12.941Z,9.43
2022-08-19T15:34:58.356Z,7.57
2022-08-19T15:37:43.492Z,8.95
2022-08-19T15:40:29.103Z,8.48
2022-08-19T15:43:15.412Z,8.27
2022-08-19T15:46:00.624Z,9.55
2022-08-19T15:48:45.786Z,9.70
2022-08-19T15:51:44.065Z,11.32
2022-08-19T15:54:29.415Z,10.57
2022-08-19T15:57:14.839Z,9.43
2022-08-19T16:00:02.370Z,10.32
2022-08-19T16:02:48.368Z,7.53
2022-08-19T16:05:38.676Z,12.25
2022-08-19T16:08:23.578Z,8.13
2022-08-19T16:11:10.458Z,10.48
2022-08-19T16:13:56.903Z,10.52
2022-08-19T16:16:45.541Z,8.55
2022-08-19T16:19:30.855Z,7.72
2022-08-19T16:22:16.536Z,7.40
2022-08-19T16:25:01.744Z,9.98
2022-08-19T16:28:06.537Z,9.23
2022-08-19T16:30:52.371Z,9.50
2022-08-19T16:33:37.868Z,11.85
2022-08-19T16:36:23.252Z,11.38
2022-08-19T16:39:10.380Z,10.00
2022-08-19T16:41:55.616Z,11.57
2022-08-19T16:44:43.235Z,10.13
2022-08-19T16:47:28.384Z,9.77
2022-08-19T16:50:13.703Z,8.85
2022-08-19T16:52:58.771Z,10.07
2022-08-19T16:55:45.898Z,11.02
2022-08-19T16:58:31.891Z,16.83
2022-08-19T17:01:18.286Z,12.35
2022-08-19T17:04:03.897Z,12.70
2022-08-19T17:06:49.039Z,11.75
2022-08-19T17:09:33.973Z,13.57
2022-08-19T17:12:19.328Z,12.48
2022-08-19T17:15:05.247Z,13.02
2022-08-19T17:17:50.562Z,11.95
2022-08-19T17:20:36.677Z,13.50
2022-08-19T17:23:22.078Z,14.23
2022-08-19T17:26:28.289Z,14.73
2022-08-19T17:29:13.789Z,12.48
2022-08-19T17:31:59.796Z,14.15
2022-08-19T17:34:44.629Z,13.95
2022-08-19T17:37:30.045Z,13.15
2022-08-19T17:40:15.890Z,11.35
2022-08-19T17:43:11.013Z,10.63
2022-08-19T17:45:56.102Z,13.50
2022-08-19T17:48:41.118Z,13.07
2022-08-19T17:51:32.532Z,12.70
2022-08-19T17:54:19.428Z,11.27
2022-08-19T17:57:04.656Z,12.13
2022-08-19T17:59:50.224Z,14.90
2022-08-19T18:02:46.128Z,14.70
2022-08-19T18:05:40.829Z,14.13
2022-08-19T18:08:25.843Z,14.52
2022-08-19T18:11:11.997Z,16.85
2022-08-19T18:13:57.439Z,17.75
2022-08-19T18:16:42.359Z,14.00
2022-08-19T18:19:30.149Z,11.25
2022-08-19T18:22:30.312Z,12.25
2022-08-19T18:25:15.542Z,14.30
2022-08-19T18:28:01.412Z,11.07
2022-08-19T18:30:46.585Z,14.45
2022-08-19T18:33:32.160Z,12.60
2022-08-19T18:36:27.891Z,11.30
2022-08-19T18:39:21.968Z,14.77
2022-08-19T18:42:13.993Z,11.70
2022-08-19T18:45:00.178Z,12.38
2022-08-19T18:47:45.396Z,11.60
2022-08-19T18:50:30.784Z,11.88
2022-08-19T18:53:16.329Z,14.23
2022-08-19T18:56:02.084Z,18.10
2022-08-19T18:58:47.178Z,23.02
2022-08-19T19:01:36.368Z,17.52
2022-08-19T19:04:24.806Z,37.85
2022-08-19T19:07:09.884Z,19.33
2022-08-19T19:09:55.884Z,11.82
2022-08-19T19:12:43.733Z,12.15
2022-08-19T19:15:28.895Z,12.63
2022-08-19T19:18:13.928Z,12.00
2022-08-19T19:20:58.901Z,14.80
2022-08-19T19:23:44.229Z,15.60
2022-08-19T19:26:29.588Z,15.88
2022-08-19T19:29:16.326Z,12.77
2022-08-19T19:32:01.931Z,33.50
2022-08-19T19:34:47.621Z,27.05
2022-08-19T19:37:33.518Z,17.85
2022-08-19T19:40:21.527Z,12.60
2022-08-19T19:43:06.799Z,13.85
2022-08-19T19:45:51.743Z,12.25
2022-08-19T19:48:36.613Z,14.65
2022-08-19T19:51:22.228Z,15.27
2022-08-19T19:54:10.222Z,14.18
2022-08-19T19:56:55.205Z,14.30
2022-08-19T19:59:40.105Z,13.55
2022-08-19T20:02:31.712Z,14.75
2022-08-19T20:05:17.620Z,15.52
2022-08-19T20:08:02.897Z,14.60
2022-08-19T20:10:48.146Z,12.65
2022-08-19T20:13:34.037Z,16.73
2022-08-19T20:16:18.871Z,17.20
2022-08-19T20:19:04.458Z,14.65
2022-08-19T20:21:51.480Z,16.33
2022-08-19T20:24:36.602Z,15.73
2022-08-19T20:27:22.794Z,17.98
2022-08-19T20:30:19.466Z,17.63
2022-08-19T20:33:05.123Z,19.73
2022-08-19T20:35:50.638Z,20.83
2022-08-19T20:38:35.665Z,20.50
2022-08-19T20:41:20.924Z,19.90
2022-08-19T20:44:06.418Z,21.13
2022-08-19T20:46:55.421Z,23.45
2022-08-19T20:49:41.585Z,21.10
2022-08-19T20:52:26.883Z,25.02
2022-08-19T20:55:14.258Z,27.05
2022-08-19T20:58:02.267Z,25.83
2022-08-19T21:00:48.963Z,26.40
2022-08-19T21:03:36.506Z,23.88
2022-08-19T21:06:28.294Z,25.50
2022-08-19T21:09:15.096Z,25.77
2022-08-19T21:12:04.134Z,23.60
2022-08-19T21:14:49.290Z,25.92
2022-08-19T21:17:34.596Z,26.77
2022-08-19T21:20:20.072Z,24.80
2022-08-19T21:23:14.978Z,26.25
2022-08-19T21:26:00.552Z,26.85
2022-08-19T21:28:45.366Z,28.35
2022-08-19T21:31:30.813Z,24.90
2022-08-19T21:34:16.600Z,26.98
2022-08-19T21:37:01.600Z,26.35
2022-08-19T21:39:46.526Z,26.98
2022-08-19T21:42:34.851Z,26.80
2022-08-19T21:45:20.421Z,27.00
2022-08-19T21:48:05.889Z,29.10
2022-08-19T21:50:51.272Z,38.55
2022-08-19T21:53:36.217Z,30.65
2022-08-19T21:56:21.448Z,30.20
2022-08-19T21:59:06.504Z,34.88
2022-08-19T22:02:01.750Z,30.05
2022-08-19T22:04:56.703Z,31.48
2022-08-19T22:07:41.538Z,29.73
2022-08-19T22:10:29.842Z,29.88
2022-08-19T22:13:14.884Z,27.33
2022-08-19T22:16:00.114Z,33.00
2022-08-19T22:18:46.191Z,31.05
2022-08-19T22:21:40.920Z,30.45
2022-08-19T22:24:26.392Z,31.13
2022-08-19T22:27:11.742Z,30.27
2022-08-19T22:29:57.043Z,33.72
2022-08-19T22:32:56.173Z,29.48
2022-08-19T22:35:42.519Z,28.40
2022-08-19T22:38:28.200Z,33.13
2022-08-19T22:41:13.575Z,32.20
2022-08-19T22:43:59.522Z,31.52
2022-08-19T22:46:44.794Z,29.40
2022-08-19T22:49:30.249Z,30.83
2022-08-19T22:52:16.533Z,33.58
2022-08-19T22:55:05.202Z,29.65
2022-08-19T22:57:50.634Z,31.00
2022-08-19T23:00:35.525Z,29.42
2022-08-19T23:03:20.864Z,32.08
2022-08-19T23:06:06.876Z,31.38
2022-08-19T23:08:52.200Z,29.42
2022-08-19T23:11:41.529Z,31.70
2022-08-19T23:14:27.932Z,27.88
2022-08-19T23:17:12.960Z,27.45
2022-08-19T23:19:58.006Z,31.50
2022-08-19T23:22:45.955Z,27.00
2022-08-19T23:25:33.568Z,28.15
2022-08-19T23:28:19.781Z,31.15
2022-08-19T23:31:05.491Z,28.58
2022-08-19T23:33:51.382Z,29.95
2022-08-19T23:36:36.968Z,30.10
2022-08-19T23:39:21.897Z,30.08
2022-08-19T23:42:11.281Z,30.10
2022-08-19T23:45:02.302Z,26.63
2022-08-19T23:47:48.997Z,32.40
2022-08-19T23:50:34.859Z,28.05
2022-08-19T23:53:20.394Z,29.77
2022-08-19T23:56:06.543Z,32.53
2022-08-19T23:58:51.924Z,27.52
